sensor_id;sensor_type;location;lat;lon;timestamp;P1;durP1;ratioP1;P2;durP2;ratioP2
12848;SDS011;6493;50.928;7.172;2022-12-24T00:03:30;5.07;;;1.40;;
12848;SDS011;6493;50.928;7.172;2022-12-24T00:08:34;4.70;;;1.60;;
12848;SDS011;6493;50.928;7.172;2022-12-24T00:13:38;4.30;;;1.47;;
12848;SDS011;6493;50.928;7.172;2022-12-24T00:18:43;3.67;;;1.20;;
12848;SDS011;6493;50.928;7.172;2022-12-24T00:23:48;3.93;;;1.10;;
12848;SDS011;6493;50.928;7.172;2022-12-24T00:28:51;4.97;;;1.70;;
12848;SDS011;6493;50.928;7.172;2022-12-24T00:33:56;6.33;;;1.77;;
12848;SDS011;6493;50.928;7.172;2022-12-24T00:39:00;6.80;;;1.70;;
12848;SDS011;6493;50.928;7.172;2022-12-24T00:44:04;5.97;;;1.40;;
12848;SDS011;6493;50.928;7.172;2022-12-24T00:49:12;3.07;;;1.17;;
12848;SDS011;6493;50.928;7.172;2022-12-24T00:54:16;5.17;;;1.47;;
12848;SDS011;6493;50.928;7.172;2022-12-24T00:59:19;4.43;;;1.50;;
12848;SDS011;6493;50.928;7.172;2022-12-24T01:04:24;4.57;;;1.27;;
12848;SDS011;6493;50.928;7.172;2022-12-24T01:09:45;3.90;;;1.07;;
12848;SDS011;6493;50.928;7.172;2022-12-24T01:14:49;5.13;;;1.63;;
12848;SDS011;6493;50.928;7.172;2022-12-24T01:19:54;6.07;;;1.57;;
12848;SDS011;6493;50.928;7.172;2022-12-24T01:24:57;5.10;;;1.60;;
12848;SDS011;6493;50.928;7.172;2022-12-24T01:30:01;3.87;;;1.27;;
12848;SDS011;6493;50.928;7.172;2022-12-24T01:35:07;4.13;;;1.53;;
12848;SDS011;6493;50.928;7.172;2022-12-24T01:40:12;6.13;;;1.10;;
12848;SDS011;6493;50.928;7.172;2022-12-24T01:45:39;4.97;;;1.50;;
12848;SDS011;6493;50.928;7.172;2022-12-24T01:50:46;5.23;;;1.63;;
12848;SDS011;6493;50.928;7.172;2022-12-24T01:55:52;4.00;;;1.00;;
12848;SDS011;6493;50.928;7.172;2022-12-24T02:00:56;6.60;;;1.90;;
12848;SDS011;6493;50.928;7.172;2022-12-24T02:06:02;4.67;;;1.40;;
12848;SDS011;6493;50.928;7.172;2022-12-24T02:11:08;5.77;;;1.53;;
12848;SDS011;6493;50.928;7.172;2022-12-24T02:16:15;3.77;;;1.10;;
12848;SDS011;6493;50.928;7.172;2022-12-24T02:27:04;5.60;;;1.67;;
12848;SDS011;6493;50.928;7.172;2022-12-24T02:32:18;3.30;;;0.97;;
12848;SDS011;6493;50.928;7.172;2022-12-24T02:37:26;1.80;;;0.80;;
12848;SDS011;6493;50.928;7.172;2022-12-24T02:42:38;3.53;;;1.00;;
12848;SDS011;6493;50.928;7.172;2022-12-24T02:47:44;5.33;;;1.30;;
12848;SDS011;6493;50.928;7.172;2022-12-24T02:52:50;5.07;;;1.50;;
12848;SDS011;6493;50.928;7.172;2022-12-24T02:58:00;4.70;;;1.10;;
12848;SDS011;6493;50.928;7.172;2022-12-24T03:03:21;3.60;;;1.07;;
12848;SDS011;6493;50.928;7.172;2022-12-24T03:08:35;4.70;;;1.20;;
12848;SDS011;6493;50.928;7.172;2022-12-24T03:13:46;4.47;;;1.50;;
12848;SDS011;6493;50.928;7.172;2022-12-24T03:18:52;1.90;;;0.80;;
12848;SDS011;6493;50.928;7.172;2022-12-24T03:23:58;5.17;;;1.50;;
12848;SDS011;6493;50.928;7.172;2022-12-24T03:29:03;4.50;;;1.20;;
12848;SDS011;6493;50.928;7.172;2022-12-24T03:34:09;3.63;;;1.33;;
12848;SDS011;6493;50.928;7.172;2022-12-24T03:39:13;5.27;;;1.60;;
12848;SDS011;6493;50.928;7.172;2022-12-24T03:44:16;4.57;;;1.40;;
12848;SDS011;6493;50.928;7.172;2022-12-24T03:49:22;3.27;;;1.13;;
12848;SDS011;6493;50.928;7.172;2022-12-24T03:54:25;3.83;;;1.20;;
12848;SDS011;6493;50.928;7.172;2022-12-24T03:59:29;3.00;;;1.00;;
12848;SDS011;6493;50.928;7.172;2022-12-24T04:04:34;1.87;;;0.60;;
12848;SDS011;6493;50.928;7.172;2022-12-24T04:09:38;2.07;;;1.03;;
12848;SDS011;6493;50.928;7.172;2022-12-24T04:14:42;2.57;;;0.90;;
12848;SDS011;6493;50.928;7.172;2022-12-24T04:19:47;1.10;;;0.60;;
12848;SDS011;6493;50.928;7.172;2022-12-24T04:24:50;2.00;;;0.50;;
12848;SDS011;6493;50.928;7.172;2022-12-24T04:29:54;1.53;;;0.50;;
12848;SDS011;6493;50.928;7.172;2022-12-24T04:34:59;1.17;;;0.47;;
12848;SDS011;6493;50.928;7.172;2022-12-24T04:40:03;1.70;;;0.67;;
12848;SDS011;6493;50.928;7.172;2022-12-24T04:45:09;2.17;;;0.40;;
12848;SDS011;6493;50.928;7.172;2022-12-24T04:50:14;2.20;;;0.60;;
12848;SDS011;6493;50.928;7.172;2022-12-24T04:55:18;0.73;;;0.30;;
12848;SDS011;6493;50.928;7.172;2022-12-24T05:00:22;2.20;;;0.60;;
12848;SDS011;6493;50.928;7.172;2022-12-24T05:05:27;1.27;;;0.50;;
12848;SDS011;6493;50.928;7.172;2022-12-24T05:10:31;0.50;;;0.20;;
12848;SDS011;6493;50.928;7.172;2022-12-24T05:15:34;1.17;;;0.60;;
12848;SDS011;6493;50.928;7.172;2022-12-24T05:20:40;1.50;;;0.40;;
12848;SDS011;6493;50.928;7.172;2022-12-24T05:25:44;0.47;;;0.37;;
12848;SDS011;6493;50.928;7.172;2022-12-24T05:31:06;0.40;;;0.40;;
12848;SDS011;6493;50.928;7.172;2022-12-24T05:36:11;1.17;;;0.30;;
12848;SDS011;6493;50.928;7.172;2022-12-24T05:41:15;0.97;;;0.50;;
12848;SDS011;6493;50.928;7.172;2022-12-24T05:46:20;1.23;;;0.33;;
12848;SDS011;6493;50.928;7.172;2022-12-24T05:51:26;0.60;;;0.40;;
12848;SDS011;6493;50.928;7.172;2022-12-24T05:56:29;1.77;;;0.50;;
12848;SDS011;6493;50.928;7.172;2022-12-24T06:01:33;0.33;;;0.30;;
12848;SDS011;6493;50.928;7.172;2022-12-24T06:06:38;1.77;;;0.50;;
12848;SDS011;6493;50.928;7.172;2022-12-24T06:11:42;1.30;;;0.30;;
12848;SDS011;6493;50.928;7.172;2022-12-24T06:16:46;2.20;;;0.60;;
12848;SDS011;6493;50.928;7.172;2022-12-24T06:21:51;1.40;;;0.57;;
12848;SDS011;6493;50.928;7.172;2022-12-24T06:26:54;1.57;;;0.50;;
12848;SDS011;6493;50.928;7.172;2022-12-24T06:31:58;1.47;;;0.50;;
12848;SDS011;6493;50.928;7.172;2022-12-24T06:37:03;3.33;;;0.80;;
12848;SDS011;6493;50.928;7.172;2022-12-24T06:42:06;1.77;;;0.70;;
12848;SDS011;6493;50.928;7.172;2022-12-24T06:47:10;2.97;;;0.77;;
12848;SDS011;6493;50.928;7.172;2022-12-24T06:52:15;2.20;;;0.63;;
12848;SDS011;6493;50.928;7.172;2022-12-24T06:57:18;0.57;;;0.53;;
12848;SDS011;6493;50.928;7.172;2022-12-24T07:02:22;3.17;;;0.83;;
12848;SDS011;6493;50.928;7.172;2022-12-24T07:07:27;2.60;;;0.80;;
12848;SDS011;6493;50.928;7.172;2022-12-24T07:12:31;2.17;;;0.57;;
12848;SDS011;6493;50.928;7.172;2022-12-24T07:17:35;2.47;;;0.80;;
12848;SDS011;6493;50.928;7.172;2022-12-24T07:22:40;4.80;;;1.00;;
12848;SDS011;6493;50.928;7.172;2022-12-24T07:27:44;2.30;;;0.87;;
12848;SDS011;6493;50.928;7.172;2022-12-24T07:32:47;2.10;;;0.97;;
12848;SDS011;6493;50.928;7.172;2022-12-24T07:37:52;2.90;;;0.80;;
12848;SDS011;6493;50.928;7.172;2022-12-24T07:42:56;3.00;;;0.90;;
12848;SDS011;6493;50.928;7.172;2022-12-24T07:48:00;4.20;;;1.20;;
12848;SDS011;6493;50.928;7.172;2022-12-24T07:53:05;2.73;;;1.20;;
12848;SDS011;6493;50.928;7.172;2022-12-24T07:58:08;3.37;;;1.10;;
12848;SDS011;6493;50.928;7.172;2022-12-24T08:03:14;3.80;;;1.17;;
12848;SDS011;6493;50.928;7.172;2022-12-24T08:08:20;2.63;;;0.87;;
12848;SDS011;6493;50.928;7.172;2022-12-24T08:13:24;2.93;;;1.00;;
12848;SDS011;6493;50.928;7.172;2022-12-24T08:18:28;3.27;;;1.17;;
12848;SDS011;6493;50.928;7.172;2022-12-24T08:23:32;3.50;;;1.10;;
12848;SDS011;6493;50.928;7.172;2022-12-24T08:28:36;2.07;;;0.73;;
12848;SDS011;6493;50.928;7.172;2022-12-24T08:33:40;2.60;;;0.93;;
12848;SDS011;6493;50.928;7.172;2022-12-24T08:38:45;1.57;;;0.80;;
12848;SDS011;6493;50.928;7.172;2022-12-24T08:43:49;4.20;;;1.00;;
12848;SDS011;6493;50.928;7.172;2022-12-24T08:48:52;2.20;;;0.80;;
12848;SDS011;6493;50.928;7.172;2022-12-24T08:53:57;3.43;;;0.90;;
12848;SDS011;6493;50.928;7.172;2022-12-24T08:59:01;4.73;;;1.03;;
12848;SDS011;6493;50.928;7.172;2022-12-24T09:04:05;2.20;;;0.90;;
12848;SDS011;6493;50.928;7.172;2022-12-24T09:09:13;4.23;;;1.33;;
12848;SDS011;6493;50.928;7.172;2022-12-24T09:14:17;4.00;;;1.43;;
12848;SDS011;6493;50.928;7.172;2022-12-24T09:19:21;1.80;;;0.70;;
12848;SDS011;6493;50.928;7.172;2022-12-24T09:24:26;3.43;;;1.03;;
12848;SDS011;6493;50.928;7.172;2022-12-24T09:29:30;2.40;;;0.93;;
12848;SDS011;6493;50.928;7.172;2022-12-24T09:34:33;4.23;;;1.20;;
12848;SDS011;6493;50.928;7.172;2022-12-24T09:39:39;4.17;;;1.20;;
12848;SDS011;6493;50.928;7.172;2022-12-24T09:44:43;4.20;;;1.20;;
12848;SDS011;6493;50.928;7.172;2022-12-24T09:49:52;2.87;;;1.17;;
12848;SDS011;6493;50.928;7.172;2022-12-24T09:55:02;4.63;;;1.33;;
12848;SDS011;6493;50.928;7.172;2022-12-24T10:00:26;2.13;;;0.97;;
12848;SDS011;6493;50.928;7.172;2022-12-24T10:05:33;3.27;;;1.20;;
12848;SDS011;6493;50.928;7.172;2022-12-24T10:10:45;5.70;;;1.30;;
12848;SDS011;6493;50.928;7.172;2022-12-24T10:15:53;2.37;;;1.07;;
12848;SDS011;6493;50.928;7.172;2022-12-24T10:21:04;3.93;;;1.07;;
12848;SDS011;6493;50.928;7.172;2022-12-24T10:26:17;2.70;;;0.97;;
12848;SDS011;6493;50.928;7.172;2022-12-24T10:31:27;3.33;;;1.03;;
12848;SDS011;6493;50.928;7.172;2022-12-24T10:36:33;2.47;;;0.70;;
12848;SDS011;6493;50.928;7.172;2022-12-24T10:41:39;5.63;;;1.20;;
12848;SDS011;6493;50.928;7.172;2022-12-24T10:46:43;5.57;;;1.57;;
12848;SDS011;6493;50.928;7.172;2022-12-24T10:51:49;3.73;;;1.10;;
12848;SDS011;6493;50.928;7.172;2022-12-24T10:56:58;3.17;;;1.00;;
12848;SDS011;6493;50.928;7.172;2022-12-24T11:02:03;3.40;;;0.87;;
12848;SDS011;6493;50.928;7.172;2022-12-24T11:07:29;2.97;;;0.87;;
12848;SDS011;6493;50.928;7.172;2022-12-24T11:12:36;3.13;;;1.10;;
12848;SDS011;6493;50.928;7.172;2022-12-24T11:17:41;4.27;;;1.00;;
12848;SDS011;6493;50.928;7.172;2022-12-24T11:22:54;4.43;;;1.30;;
12848;SDS011;6493;50.928;7.172;2022-12-24T11:28:09;5.93;;;1.47;;
12848;SDS011;6493;50.928;7.172;2022-12-24T11:33:15;4.27;;;1.33;;
12848;SDS011;6493;50.928;7.172;2022-12-24T11:38:23;3.20;;;1.13;;
12848;SDS011;6493;50.928;7.172;2022-12-24T11:43:35;5.77;;;1.50;;
12848;SDS011;6493;50.928;7.172;2022-12-24T11:48:48;6.23;;;1.37;;
12848;SDS011;6493;50.928;7.172;2022-12-24T11:54:21;3.63;;;1.17;;
12848;SDS011;6493;50.928;7.172;2022-12-24T11:59:31;4.90;;;1.27;;
12848;SDS011;6493;50.928;7.172;2022-12-24T12:04:39;5.27;;;1.80;;
12848;SDS011;6493;50.928;7.172;2022-12-24T12:09:46;2.90;;;0.80;;
12848;SDS011;6493;50.928;7.172;2022-12-24T12:14:54;4.37;;;1.20;;
12848;SDS011;6493;50.928;7.172;2022-12-24T12:20:02;2.67;;;1.13;;
12848;SDS011;6493;50.928;7.172;2022-12-24T12:25:15;2.90;;;0.90;;
12848;SDS011;6493;50.928;7.172;2022-12-24T12:30:24;3.83;;;0.97;;
12848;SDS011;6493;50.928;7.172;2022-12-24T12:35:29;3.63;;;1.10;;
12848;SDS011;6493;50.928;7.172;2022-12-24T12:40:40;3.50;;;1.30;;
12848;SDS011;6493;50.928;7.172;2022-12-24T12:45:55;5.33;;;1.63;;
12848;SDS011;6493;50.928;7.172;2022-12-24T12:51:03;4.67;;;1.17;;
12848;SDS011;6493;50.928;7.172;2022-12-24T12:56:13;3.20;;;1.10;;
12848;SDS011;6493;50.928;7.172;2022-12-24T13:01:28;3.83;;;1.03;;
12848;SDS011;6493;50.928;7.172;2022-12-24T13:06:44;2.30;;;0.80;;
12848;SDS011;6493;50.928;7.172;2022-12-24T13:12:21;3.87;;;1.17;;
12848;SDS011;6493;50.928;7.172;2022-12-24T13:17:40;3.17;;;0.90;;
12848;SDS011;6493;50.928;7.172;2022-12-24T13:22:56;3.43;;;0.90;;
12848;SDS011;6493;50.928;7.172;2022-12-24T13:28:14;3.17;;;1.13;;
12848;SDS011;6493;50.928;7.172;2022-12-24T13:33:47;1.80;;;0.73;;
12848;SDS011;6493;50.928;7.172;2022-12-24T13:38:51;3.63;;;1.00;;
12848;SDS011;6493;50.928;7.172;2022-12-24T13:44:01;2.17;;;0.77;;
12848;SDS011;6493;50.928;7.172;2022-12-24T13:49:11;2.80;;;1.10;;
12848;SDS011;6493;50.928;7.172;2022-12-24T13:54:21;3.47;;;0.70;;
12848;SDS011;6493;50.928;7.172;2022-12-24T13:59:32;3.03;;;0.90;;
12848;SDS011;6493;50.928;7.172;2022-12-24T14:04:41;5.07;;;1.37;;
12848;SDS011;6493;50.928;7.172;2022-12-24T14:09:46;4.67;;;1.20;;
12848;SDS011;6493;50.928;7.172;2022-12-24T14:14:52;2.30;;;0.87;;
12848;SDS011;6493;50.928;7.172;2022-12-24T14:19:57;3.27;;;1.47;;
12848;SDS011;6493;50.928;7.172;2022-12-24T14:25:03;2.80;;;1.20;;
12848;SDS011;6493;50.928;7.172;2022-12-24T14:30:16;3.53;;;1.40;;
12848;SDS011;6493;50.928;7.172;2022-12-24T14:35:24;3.33;;;1.33;;
12848;SDS011;6493;50.928;7.172;2022-12-24T14:40:30;1.37;;;0.87;;
12848;SDS011;6493;50.928;7.172;2022-12-24T14:45:37;4.10;;;2.40;;
12848;SDS011;6493;50.928;7.172;2022-12-24T14:50:54;2.67;;;1.57;;
12848;SDS011;6493;50.928;7.172;2022-12-24T14:56:08;1.30;;;0.80;;
12848;SDS011;6493;50.928;7.172;2022-12-24T15:01:19;1.33;;;0.70;;
12848;SDS011;6493;50.928;7.172;2022-12-24T15:06:27;1.73;;;0.70;;
12848;SDS011;6493;50.928;7.172;2022-12-24T15:11:33;3.23;;;0.87;;
12848;SDS011;6493;50.928;7.172;2022-12-24T15:16:37;1.27;;;0.57;;
12848;SDS011;6493;50.928;7.172;2022-12-24T15:21:43;2.97;;;0.97;;
12848;SDS011;6493;50.928;7.172;2022-12-24T15:26:47;1.83;;;0.57;;
12848;SDS011;6493;50.928;7.172;2022-12-24T15:31:51;2.33;;;0.70;;
12848;SDS011;6493;50.928;7.172;2022-12-24T15:37:01;3.47;;;1.40;;
12848;SDS011;6493;50.928;7.172;2022-12-24T15:42:06;2.27;;;1.43;;
12848;SDS011;6493;50.928;7.172;2022-12-24T15:47:19;2.00;;;1.20;;
12848;SDS011;6493;50.928;7.172;2022-12-24T15:52:31;1.87;;;0.80;;
12848;SDS011;6493;50.928;7.172;2022-12-24T15:57:41;1.63;;;0.77;;
12848;SDS011;6493;50.928;7.172;2022-12-24T16:02:45;1.63;;;0.70;;
12848;SDS011;6493;50.928;7.172;2022-12-24T16:07:59;2.63;;;0.80;;
12848;SDS011;6493;50.928;7.172;2022-12-24T16:13:11;2.57;;;1.07;;
12848;SDS011;6493;50.928;7.172;2022-12-24T16:18:20;1.90;;;0.80;;
12848;SDS011;6493;50.928;7.172;2022-12-24T16:23:30;3.77;;;1.40;;
12848;SDS011;6493;50.928;7.172;2022-12-24T16:28:38;1.70;;;1.23;;
12848;SDS011;6493;50.928;7.172;2022-12-24T16:33:42;2.83;;;1.80;;
12848;SDS011;6493;50.928;7.172;2022-12-24T16:38:47;3.37;;;1.90;;
12848;SDS011;6493;50.928;7.172;2022-12-24T16:44:09;4.10;;;2.20;;
12848;SDS011;6493;50.928;7.172;2022-12-24T16:49:13;3.53;;;2.23;;
12848;SDS011;6493;50.928;7.172;2022-12-24T16:54:20;4.37;;;2.37;;
12848;SDS011;6493;50.928;7.172;2022-12-24T16:59:23;3.37;;;2.60;;
12848;SDS011;6493;50.928;7.172;2022-12-24T17:04:29;4.77;;;2.70;;
12848;SDS011;6493;50.928;7.172;2022-12-24T17:09:35;4.50;;;2.77;;
12848;SDS011;6493;50.928;7.172;2022-12-24T17:14:38;5.37;;;3.50;;
12848;SDS011;6493;50.928;7.172;2022-12-24T17:19:43;4.60;;;2.77;;
12848;SDS011;6493;50.928;7.172;2022-12-24T17:24:48;4.13;;;2.60;;
12848;SDS011;6493;50.928;7.172;2022-12-24T17:29:52;3.20;;;2.33;;
12848;SDS011;6493;50.928;7.172;2022-12-24T17:34:55;3.03;;;2.07;;
12848;SDS011;6493;50.928;7.172;2022-12-24T17:40:06;2.60;;;1.60;;
12848;SDS011;6493;50.928;7.172;2022-12-24T17:45:10;4.53;;;2.00;;
12848;SDS011;6493;50.928;7.172;2022-12-24T17:50:14;2.67;;;1.40;;
12848;SDS011;6493;50.928;7.172;2022-12-24T17:55:19;5.40;;;1.47;;
12848;SDS011;6493;50.928;7.172;2022-12-24T18:00:24;2.07;;;1.30;;
12848;SDS011;6493;50.928;7.172;2022-12-24T18:05:34;2.10;;;1.20;;
12848;SDS011;6493;50.928;7.172;2022-12-24T18:10:40;2.87;;;1.43;;
12848;SDS011;6493;50.928;7.172;2022-12-24T18:15:44;3.70;;;1.30;;
12848;SDS011;6493;50.928;7.172;2022-12-24T18:20:48;1.70;;;1.00;;
12848;SDS011;6493;50.928;7.172;2022-12-24T18:25:53;1.67;;;1.10;;
12848;SDS011;6493;50.928;7.172;2022-12-24T18:31:03;3.77;;;1.60;;
12848;SDS011;6493;50.928;7.172;2022-12-24T18:36:09;2.33;;;1.60;;
12848;SDS011;6493;50.928;7.172;2022-12-24T18:41:16;4.00;;;1.70;;
12848;SDS011;6493;50.928;7.172;2022-12-24T18:46:22;4.20;;;2.80;;
12848;SDS011;6493;50.928;7.172;2022-12-24T18:51:30;4.17;;;2.47;;
12848;SDS011;6493;50.928;7.172;2022-12-24T18:56:38;2.80;;;1.80;;
12848;SDS011;6493;50.928;7.172;2022-12-24T19:01:41;4.07;;;2.30;;
12848;SDS011;6493;50.928;7.172;2022-12-24T19:06:46;2.10;;;1.60;;
12848;SDS011;6493;50.928;7.172;2022-12-24T19:11:55;3.43;;;1.90;;
12848;SDS011;6493;50.928;7.172;2022-12-24T19:16:59;2.57;;;1.43;;
12848;SDS011;6493;50.928;7.172;2022-12-24T19:22:02;3.03;;;1.57;;
12848;SDS011;6493;50.928;7.172;2022-12-24T19:27:08;2.70;;;1.57;;
12848;SDS011;6493;50.928;7.172;2022-12-24T19:32:11;2.43;;;1.93;;
12848;SDS011;6493;50.928;7.172;2022-12-24T19:37:15;2.87;;;1.50;;
12848;SDS011;6493;50.928;7.172;2022-12-24T19:42:20;3.83;;;1.80;;
12848;SDS011;6493;50.928;7.172;2022-12-24T19:47:24;3.23;;;1.70;;
12848;SDS011;6493;50.928;7.172;2022-12-24T19:52:27;2.90;;;1.70;;
12848;SDS011;6493;50.928;7.172;2022-12-24T19:57:34;4.90;;;2.50;;
12848;SDS011;6493;50.928;7.172;2022-12-24T20:02:37;3.60;;;2.57;;
12848;SDS011;6493;50.928;7.172;2022-12-24T20:07:41;5.47;;;2.80;;
12848;SDS011;6493;50.928;7.172;2022-12-24T20:12:46;5.60;;;2.70;;
12848;SDS011;6493;50.928;7.172;2022-12-24T20:17:50;6.43;;;2.67;;
12848;SDS011;6493;50.928;7.172;2022-12-24T20:22:55;3.60;;;2.00;;
12848;SDS011;6493;50.928;7.172;2022-12-24T20:28:01;3.60;;;1.77;;
12848;SDS011;6493;50.928;7.172;2022-12-24T20:33:05;6.40;;;2.00;;
12848;SDS011;6493;50.928;7.172;2022-12-24T20:38:09;5.17;;;1.47;;
12848;SDS011;6493;50.928;7.172;2022-12-24T20:43:14;2.27;;;1.20;;
12848;SDS011;6493;50.928;7.172;2022-12-24T20:48:25;2.03;;;1.40;;
12848;SDS011;6493;50.928;7.172;2022-12-24T20:53:28;4.13;;;1.83;;
12848;SDS011;6493;50.928;7.172;2022-12-24T20:58:33;2.70;;;1.67;;
12848;SDS011;6493;50.928;7.172;2022-12-24T21:03:37;3.70;;;1.53;;
12848;SDS011;6493;50.928;7.172;2022-12-24T21:08:42;1.90;;;1.23;;
12848;SDS011;6493;50.928;7.172;2022-12-24T21:13:47;3.00;;;1.37;;
12848;SDS011;6493;50.928;7.172;2022-12-24T21:18:50;3.03;;;1.27;;
12848;SDS011;6493;50.928;7.172;2022-12-24T21:23:54;2.63;;;1.10;;
12848;SDS011;6493;50.928;7.172;2022-12-24T21:29:00;1.53;;;1.20;;
12848;SDS011;6493;50.928;7.172;2022-12-24T21:34:05;2.23;;;1.30;;
12848;SDS011;6493;50.928;7.172;2022-12-24T21:39:09;1.80;;;1.07;;
12848;SDS011;6493;50.928;7.172;2022-12-24T21:44:14;1.97;;;1.10;;
12848;SDS011;6493;50.928;7.172;2022-12-24T21:49:17;1.43;;;0.93;;
12848;SDS011;6493;50.928;7.172;2022-12-24T21:54:38;3.03;;;1.60;;
12848;SDS011;6493;50.928;7.172;2022-12-24T21:59:43;2.90;;;1.37;;
12848;SDS011;6493;50.928;7.172;2022-12-24T22:04:47;2.07;;;1.33;;
12848;SDS011;6493;50.928;7.172;2022-12-24T22:09:51;2.50;;;1.43;;
12848;SDS011;6493;50.928;7.172;2022-12-24T22:15:13;2.87;;;1.50;;
12848;SDS011;6493;50.928;7.172;2022-12-24T22:20:17;2.33;;;1.27;;
12848;SDS011;6493;50.928;7.172;2022-12-24T22:25:21;2.27;;;1.40;;
12848;SDS011;6493;50.928;7.172;2022-12-24T22:30:26;2.77;;;1.40;;
12848;SDS011;6493;50.928;7.172;2022-12-24T22:35:30;2.53;;;1.30;;
12848;SDS011;6493;50.928;7.172;2022-12-24T22:40:37;1.70;;;1.30;;
12848;SDS011;6493;50.928;7.172;2022-12-24T22:45:42;3.17;;;1.40;;
12848;SDS011;6493;50.928;7.172;2022-12-24T22:50:46;3.50;;;1.60;;
12848;SDS011;6493;50.928;7.172;2022-12-24T22:55:53;3.77;;;1.70;;
12848;SDS011;6493;50.928;7.172;2022-12-24T23:00:59;2.37;;;1.63;;
12848;SDS011;6493;50.928;7.172;2022-12-24T23:06:04;5.10;;;2.20;;
12848;SDS011;6493;50.928;7.172;2022-12-24T23:11:10;2.77;;;1.63;;
12848;SDS011;6493;50.928;7.172;2022-12-24T23:16:16;3.97;;;1.67;;
12848;SDS011;6493;50.928;7.172;2022-12-24T23:21:20;3.20;;;1.83;;
12848;SDS011;6493;50.928;7.172;2022-12-24T23:26:24;2.60;;;1.37;;
12848;SDS011;6493;50.928;7.172;2022-12-24T23:31:30;3.83;;;1.73;;
12848;SDS011;6493;50.928;7.172;2022-12-24T23:36:35;4.73;;;1.70;;
12848;SDS011;6493;50.928;7.172;2022-12-24T23:41:39;3.67;;;1.60;;
12848;SDS011;6493;50.928;7.172;2022-12-24T23:46:43;3.70;;;2.20;;
12848;SDS011;6493;50.928;7.172;2022-12-24T23:51:47;4.27;;;1.70;;
12848;SDS011;6493;50.928;7.172;2022-12-24T23:56:51;4.07;;;1.50;;
